Rayong, Thailand

12:50 AM ICT on Juli 30, 2015 (GMT +0700)
Nhong Yai In | | Change Station
CLOSE
Current Station
Personal Weather Stations
Location: Phe, Rayong
Elevation: 26 ft
Nearby Weather Stations

Elev 26 ft 12.62 °N, 101.40 °E | Updated 8 seconds ago

Mostly Cloudy
Mestadels molnigt
83.0 °F
Feels Like 92 °F
N
5.0
Vind Växlande Vind from S/SV
Gusts 7.0 miles/tim

Idag
High -- | Low -- °F
--% Chance of Precip.
Yesterday
High -- | Low -- °F
Precip. -- tum
6:00 AM 6:41 PM
Andra kvarteret, 96% visible
Lufttryck 29.86 tum
Sikt 5.0 miles
Molnigt Few 2000 ft
Växlande molnighet 4000 ft
Mestadels molnigt 30000 ft
Värmeindex 92 °F
Daggpunkt 77 °F
Luftfuktighet 83%
Rainfall 0.00 tum
Snow Depth Not available.
UV 0 out of 12
Pollen Not available.
Air Quality Not available.
Flu Activity Not available.
METAR VTBU 291730Z 20010KT 8000 FEW020 SCT040 BKN300 29/23 Q1011 A2988

More Conditions Fewer Conditions

Lufttryck 29.86 tum
Sikt 5.0 miles
Molnigt Few 2000 ft
Växlande molnighet 4000 ft
Mestadels molnigt 30000 ft
Värmeindex 92 °F
Daggpunkt 77 °F
Luftfuktighet 83%
Rainfall 0.00 tum
Snow Depth Not available.
UV 0 out of 12
Pollen Not available.
Air Quality Not available.
Flu Activity Not available.
METAR VTBU 291730Z 20010KT 8000 FEW020 SCT040 BKN300 29/23 Q1011 A2988

More Conditions Fewer Conditions

10-Day Weather Forecast

×

Almanac

Astronomi

Jul. 30, 2015 Rise Set
Actual Time
Civil Twilight
Nautical Twilight
Astronomical Twilight
Månen
Length Of Visible Light
Dagens längd
Tomorrow will be .
, % of the Moon is Illuminated

Today's Extremes

Country Highs Country Lows

Community

WunderPhotos

Upload Photos

1,842,135 photos uploaded!

WunderBlogs® & News

Nearby

Air Quality

  Air Quality AQ Index Pollutant
Not available.

Snödjup

Station Depth Elevation

Earthquake Activity

Stad Distance Mag. Time & Date
Minimum magnitude displayed is 2.5.

Coastal Water Temperatures

Plats Temperatur

Stations

Nearby Weather Stations

Station Location Temp Vindavkylning Daggpunkt Luftfuktighet Vind Precip. Elev Uppdaterad Type